Terminal Aerodrome Forecast
Issued by NWS Topeka, KS

Home | Current Version | Previous Version | Text Only | Print | Product List | Glossary Off
Versions: 1 2 3 4 5 6 7 8 9 10 11 12 13 14 15 16 17 18

000
FTUS43 KTOP 181727
TAFTOP
TAF
KTOP 181727Z 1818/1918 18004KT P6SM FEW250
     FM191000 18004KT 5SM BR BKN150
     FM191300 16005KT 2SM BR BKN008
     FM191500 15007KT P6SM BKN008
     FM191600 15008KT P6SM BKN015=

USA.gov is the U.S. government's official web portal to all federal, state and local government web resources and services.